EGGD/BRS METAR and TAF weather

Enter ICAO airport designator
Station Type Date Time Source
EGGD METAR 2021/09/20 03:50 UTC NOAA

EGGD 200350Z AUTO 29004KT 9999 NCD 10/08 Q1022


Station Type Date Time Source
EGGD Decoded METAR 2021/09/20 03:50 UTC NOAA

Bristol / Lulsgate , United Kingdom (EGGD) 51-23N 002-43W
Sep 19, 2021 - 11:50 PM EDT / 2021.09.20 0350 UTC
Wind: from the WNW (290 degrees) at 5 MPH (4 KT):0
Visibility: greater than 7 mile(s):0
Temperature: 50 F (10 C)
Dew Point: 46 F (8 C)
Relative Humidity: 87%
Pressure (altimeter): 30.18 in. Hg (1022 hPa)
ob: EGGD 200350Z AUTO 29004KT 9999 NCD 10/08 Q1022
cycle: 4

Station Type Date Time Source
EGGD TAF 2021/09/19 18:09 UTC NOAA

TAF EGGD 191700Z 1918/2018 30008KT 9999 FEW035 PROB30
TEMPO 2002/2008 8000

Example: see airport list